sensor_id;sensor_type;location;lat;lon;timestamp;pressure;altitude;pressure_sealevel;temperature;humidity
40940;BME280;26666;50.156;7.700;2023-02-12T00:04:03;102637.59;;;5.22;100.00
40940;BME280;26666;50.156;7.700;2023-02-12T00:09:05;102624.38;;;5.25;100.00
40940;BME280;26666;50.156;7.700;2023-02-12T00:14:06;102627.78;;;5.28;100.00
40940;BME280;26666;50.156;7.700;2023-02-12T00:19:08;102620.84;;;5.27;100.00
40940;BME280;26666;50.156;7.700;2023-02-12T00:24:10;102628.63;;;5.29;100.00
40940;BME280;26666;50.156;7.700;2023-02-12T00:29:11;102620.94;;;5.23;100.00
40940;BME280;26666;50.156;7.700;2023-02-12T00:34:13;102617.28;;;5.28;100.00
40940;BME280;26666;50.156;7.700;2023-02-12T00:39:14;102627.03;;;5.23;100.00
40940;BME280;26666;50.156;7.700;2023-02-12T00:44:16;102629.81;;;5.17;100.00
40940;BME280;26666;50.156;7.700;2023-02-12T00:49:17;102627.97;;;5.21;100.00
40940;BME280;26666;50.156;7.700;2023-02-12T00:54:19;102641.06;;;5.22;100.00
40940;BME280;26666;50.156;7.700;2023-02-12T00:59:22;102628.75;;;5.24;100.00
40940;BME280;26666;50.156;7.700;2023-02-12T01:04:23;102637.31;;;5.31;100.00
40940;BME280;26666;50.156;7.700;2023-02-12T01:09:25;102645.47;;;5.20;100.00
40940;BME280;26666;50.156;7.700;2023-02-12T01:14:26;102647.13;;;5.24;100.00
40940;BME280;26666;50.156;7.700;2023-02-12T01:19:28;102639.22;;;5.26;100.00
40940;BME280;26666;50.156;7.700;2023-02-12T01:24:30;102654.03;;;5.27;100.00
40940;BME280;26666;50.156;7.700;2023-02-12T01:29:31;102637.31;;;5.31;100.00
40940;BME280;26666;50.156;7.700;2023-02-12T01:34:33;102640.69;;;5.36;100.00
40940;BME280;26666;50.156;7.700;2023-02-12T01:39:34;102635.56;;;5.31;100.00
40940;BME280;26666;50.156;7.700;2023-02-12T01:44:42;102628.50;;;5.35;100.00
40940;BME280;26666;50.156;7.700;2023-02-12T01:49:46;102631.47;;;5.21;100.00
40940;BME280;26666;50.156;7.700;2023-02-12T01:54:49;102634.16;;;5.20;100.00
40940;BME280;26666;50.156;7.700;2023-02-12T01:59:56;102626.97;;;5.26;100.00
40940;BME280;26666;50.156;7.700;2023-02-12T02:05:01;102626.72;;;5.36;100.00
40940;BME280;26666;50.156;7.700;2023-02-12T02:10:04;102618.91;;;5.34;100.00
40940;BME280;26666;50.156;7.700;2023-02-12T02:15:06;102617.06;;;5.38;100.00
40940;BME280;26666;50.156;7.700;2023-02-12T02:31:03;102612.78;;;5.33;100.00
40940;BME280;26666;50.156;7.700;2023-02-12T02:36:19;102614.50;;;5.34;100.00
40940;BME280;26666;50.156;7.700;2023-02-12T02:42:05;102606.22;;;5.17;100.00
40940;BME280;26666;50.156;7.700;2023-02-12T02:46:58;102610.41;;;5.24;100.00
40940;BME280;26666;50.156;7.700;2023-02-12T02:52:07;102610.28;;;5.29;100.00
40940;BME280;26666;50.156;7.700;2023-02-12T03:02:27;102614.44;;;5.38;100.00
40940;BME280;26666;50.156;7.700;2023-02-12T03:07:37;102611.31;;;5.23;100.00
40940;BME280;26666;50.156;7.700;2023-02-12T03:12:53;102604.19;;;5.28;100.00
40940;BME280;26666;50.156;7.700;2023-02-12T03:17:57;102603.38;;;5.26;100.00
40940;BME280;26666;50.156;7.700;2023-02-12T03:23:03;102610.34;;;5.27;100.00
40940;BME280;26666;50.156;7.700;2023-02-12T03:28:20;102604.13;;;5.31;100.00
40940;BME280;26666;50.156;7.700;2023-02-12T03:33:31;102608.38;;;5.36;100.00
40940;BME280;26666;50.156;7.700;2023-02-12T03:38:48;102609.19;;;5.38;100.00
40940;BME280;26666;50.156;7.700;2023-02-12T03:43:58;102610.97;;;5.37;100.00
40940;BME280;26666;50.156;7.700;2023-02-12T03:49:19;102612.97;;;5.27;100.00
40940;BME280;26666;50.156;7.700;2023-02-12T03:54:22;102612.75;;;5.35;100.00
40940;BME280;26666;50.156;7.700;2023-02-12T03:59:24;102607.59;;;5.32;100.00
40940;BME280;26666;50.156;7.700;2023-02-12T04:04:26;102607.66;;;5.29;100.00
40940;BME280;26666;50.156;7.700;2023-02-12T04:09:30;102614.72;;;5.27;100.00
40940;BME280;26666;50.156;7.700;2023-02-12T04:14:45;102616.34;;;5.31;100.00
40940;BME280;26666;50.156;7.700;2023-02-12T04:30:36;102621.50;;;5.34;100.00
40940;BME280;26666;50.156;7.700;2023-02-12T04:35:50;102625.94;;;5.32;100.00
40940;BME280;26666;50.156;7.700;2023-02-12T04:40:55;102615.41;;;5.33;100.00
40940;BME280;26666;50.156;7.700;2023-02-12T04:45:57;102620.56;;;5.37;100.00
40940;BME280;26666;50.156;7.700;2023-02-12T04:51:00;102626.94;;;5.28;100.00
40940;BME280;26666;50.156;7.700;2023-02-12T04:56:02;102624.94;;;5.36;100.00
40940;BME280;26666;50.156;7.700;2023-02-12T05:01:03;102626.75;;;5.34;100.00
40940;BME280;26666;50.156;7.700;2023-02-12T05:06:07;102623.38;;;5.29;100.00
40940;BME280;26666;50.156;7.700;2023-02-12T05:11:09;102626.97;;;5.26;100.00
40940;BME280;26666;50.156;7.700;2023-02-12T05:16:11;102631.22;;;5.30;100.00
40940;BME280;26666;50.156;7.700;2023-02-12T05:21:12;102626.78;;;5.32;100.00
40940;BME280;26666;50.156;7.700;2023-02-12T05:26:17;102626.16;;;5.24;100.00
40940;BME280;26666;50.156;7.700;2023-02-12T05:31:19;102625.16;;;5.28;100.00
40940;BME280;26666;50.156;7.700;2023-02-12T05:36:23;102632.03;;;5.32;100.00
40940;BME280;26666;50.156;7.700;2023-02-12T05:41:24;102633.63;;;5.38;100.00
40940;BME280;26666;50.156;7.700;2023-02-12T05:46:26;102632.03;;;5.32;100.00
40940;BME280;26666;50.156;7.700;2023-02-12T05:51:28;102642.56;;;5.31;100.00
40940;BME280;26666;50.156;7.700;2023-02-12T05:56:31;102638.13;;;5.33;100.00
40940;BME280;26666;50.156;7.700;2023-02-12T06:01:38;102647.59;;;5.39;100.00
40940;BME280;26666;50.156;7.700;2023-02-12T06:06:41;102645.19;;;5.31;100.00
40940;BME280;26666;50.156;7.700;2023-02-12T06:11:43;102650.34;;;5.34;100.00
40940;BME280;26666;50.156;7.700;2023-02-12T06:16:46;102654.94;;;5.26;100.00
40940;BME280;26666;50.156;7.700;2023-02-12T06:21:48;102651.31;;;5.31;100.00
40940;BME280;26666;50.156;7.700;2023-02-12T06:26:50;102650.16;;;5.42;100.00
40940;BME280;26666;50.156;7.700;2023-02-12T06:31:52;102661.78;;;5.31;100.00
40940;BME280;26666;50.156;7.700;2023-02-12T06:36:53;102663.50;;;5.32;100.00
40940;BME280;26666;50.156;7.700;2023-02-12T06:41:55;102657.25;;;5.37;100.00
40940;BME280;26666;50.156;7.700;2023-02-12T06:46:56;102667.91;;;5.30;100.00
40940;BME280;26666;50.156;7.700;2023-02-12T06:51:58;102663.22;;;5.43;100.00
40940;BME280;26666;50.156;7.700;2023-02-12T06:57:03;102666.63;;;5.47;100.00
40940;BME280;26666;50.156;7.700;2023-02-12T07:02:05;102676.41;;;5.40;100.00
40940;BME280;26666;50.156;7.700;2023-02-12T07:07:07;102669.56;;;5.34;100.00
40940;BME280;26666;50.156;7.700;2023-02-12T07:12:09;102676.59;;;5.32;100.00
40940;BME280;26666;50.156;7.700;2023-02-12T07:17:10;102675.88;;;5.27;100.00
40940;BME280;26666;50.156;7.700;2023-02-12T07:22:12;102681.84;;;5.32;100.00
40940;BME280;26666;50.156;7.700;2023-02-12T07:27:13;102693.06;;;5.39;100.00
40940;BME280;26666;50.156;7.700;2023-02-12T07:32:15;102691.19;;;5.43;100.00
40940;BME280;26666;50.156;7.700;2023-02-12T07:37:16;102697.91;;;5.53;100.00
40940;BME280;26666;50.156;7.700;2023-02-12T07:42:18;102687.53;;;5.48;100.00
40940;BME280;26666;50.156;7.700;2023-02-12T07:47:19;102690.06;;;5.53;100.00
40940;BME280;26666;50.156;7.700;2023-02-12T07:52:21;102689.63;;;5.68;100.00
40940;BME280;26666;50.156;7.700;2023-02-12T07:57:22;102699.22;;;5.69;100.00
40940;BME280;26666;50.156;7.700;2023-02-12T08:02:24;102699.09;;;5.74;100.00
40940;BME280;26666;50.156;7.700;2023-02-12T08:07:26;102696.66;;;5.99;100.00
40940;BME280;26666;50.156;7.700;2023-02-12T08:12:27;102702.75;;;6.01;100.00
40940;BME280;26666;50.156;7.700;2023-02-12T08:17:29;102705.09;;;6.10;100.00
40940;BME280;26666;50.156;7.700;2023-02-12T08:22:30;102705.25;;;6.04;100.00
40940;BME280;26666;50.156;7.700;2023-02-12T08:27:32;102708.47;;;6.14;100.00
40940;BME280;26666;50.156;7.700;2023-02-12T08:32:34;102715.41;;;6.17;100.00
40940;BME280;26666;50.156;7.700;2023-02-12T08:37:35;102711.88;;;6.18;100.00
40940;BME280;26666;50.156;7.700;2023-02-12T08:42:37;102718.84;;;6.19;100.00
40940;BME280;26666;50.156;7.700;2023-02-12T08:47:38;102710.63;;;6.31;100.00
40940;BME280;26666;50.156;7.700;2023-02-12T08:52:40;102712.06;;;6.41;100.00
40940;BME280;26666;50.156;7.700;2023-02-12T08:57:44;102710.44;;;6.37;100.00
40940;BME280;26666;50.156;7.700;2023-02-12T09:02:47;102713.22;;;6.32;100.00
40940;BME280;26666;50.156;7.700;2023-02-12T09:07:52;102712.91;;;6.42;100.00
40940;BME280;26666;50.156;7.700;2023-02-12T09:12:53;102707.56;;;6.45;100.00
40940;BME280;26666;50.156;7.700;2023-02-12T09:17:55;102715.19;;;6.54;100.00
40940;BME280;26666;50.156;7.700;2023-02-12T09:22:57;102714.81;;;6.65;100.00
40940;BME280;26666;50.156;7.700;2023-02-12T09:28:02;102724.31;;;6.69;100.00
40940;BME280;26666;50.156;7.700;2023-02-12T09:33:06;102725.00;;;6.76;100.00
40940;BME280;26666;50.156;7.700;2023-02-12T09:38:08;102716.97;;;6.80;100.00
40940;BME280;26666;50.156;7.700;2023-02-12T09:54:11;102721.31;;;7.08;100.00
40940;BME280;26666;50.156;7.700;2023-02-12T09:59:20;102725.97;;;7.00;100.00
40940;BME280;26666;50.156;7.700;2023-02-12T10:04:28;102718.69;;;7.08;100.00
40940;BME280;26666;50.156;7.700;2023-02-12T10:10:07;102716.56;;;7.19;100.00
40940;BME280;26666;50.156;7.700;2023-02-12T10:20:36;102724.16;;;7.28;100.00
40940;BME280;26666;50.156;7.700;2023-02-12T10:25:55;102721.22;;;7.38;100.00
40940;BME280;26666;50.156;7.700;2023-02-12T10:31:03;102729.94;;;7.40;100.00
40940;BME280;26666;50.156;7.700;2023-02-12T10:36:57;102725.31;;;7.46;100.00
40940;BME280;26666;50.156;7.700;2023-02-12T10:41:46;102727.78;;;7.51;100.00
40940;BME280;26666;50.156;7.700;2023-02-12T10:46:50;102725.16;;;7.51;100.00
40940;BME280;26666;50.156;7.700;2023-02-12T10:57:16;102713.81;;;7.49;100.00
40940;BME280;26666;50.156;7.700;2023-02-12T11:02:24;102710.38;;;7.47;100.00
40940;BME280;26666;50.156;7.700;2023-02-12T11:07:27;102706.53;;;7.57;100.00
40940;BME280;26666;50.156;7.700;2023-02-12T11:12:34;102706.44;;;7.59;100.00
40940;BME280;26666;50.156;7.700;2023-02-12T11:17:41;102702.88;;;7.61;100.00
40940;BME280;26666;50.156;7.700;2023-02-12T11:28:11;102684.03;;;7.72;100.00
40940;BME280;26666;50.156;7.700;2023-02-12T11:33:22;102666.44;;;7.74;100.00
40940;BME280;26666;50.156;7.700;2023-02-12T11:38:27;102663.19;;;7.67;100.00
40940;BME280;26666;50.156;7.700;2023-02-12T11:43:30;102652.53;;;7.70;100.00
40940;BME280;26666;50.156;7.700;2023-02-12T11:48:38;102658.53;;;7.74;100.00
40940;BME280;26666;50.156;7.700;2023-02-12T11:53:42;102658.44;;;7.77;100.00
40940;BME280;26666;50.156;7.700;2023-02-12T11:58:49;102644.94;;;7.86;100.00
40940;BME280;26666;50.156;7.700;2023-02-12T12:14:26;102634.00;;;7.74;100.00
40940;BME280;26666;50.156;7.700;2023-02-12T12:19:55;102636.56;;;7.75;100.00
40940;BME280;26666;50.156;7.700;2023-02-12T12:41:18;102621.50;;;8.02;100.00
40940;BME280;26666;50.156;7.700;2023-02-12T13:13:06;102577.09;;;8.15;100.00
40940;BME280;26666;50.156;7.700;2023-02-12T13:18:24;102584.34;;;8.10;100.00
40940;BME280;26666;50.156;7.700;2023-02-12T13:23:38;102572.41;;;8.01;100.00
40940;BME280;26666;50.156;7.700;2023-02-12T13:28:47;102565.97;;;8.08;100.00
40940;BME280;26666;50.156;7.700;2023-02-12T13:33:59;102567.81;;;7.84;100.00
40940;BME280;26666;50.156;7.700;2023-02-12T13:39:14;102571.19;;;8.10;100.00
40940;BME280;26666;50.156;7.700;2023-02-12T13:44:25;102569.47;;;8.31;100.00
40940;BME280;26666;50.156;7.700;2023-02-12T13:49:40;102561.31;;;8.37;100.00
40940;BME280;26666;50.156;7.700;2023-02-12T13:59:54;102562.97;;;8.18;100.00
40940;BME280;26666;50.156;7.700;2023-02-12T14:05:01;102559.00;;;8.29;100.00
40940;BME280;26666;50.156;7.700;2023-02-12T14:10:04;102544.28;;;8.46;100.00
40940;BME280;26666;50.156;7.700;2023-02-12T14:15:23;102550.91;;;8.34;100.00
40940;BME280;26666;50.156;7.700;2023-02-12T14:20:34;102546.50;;;8.13;100.00
40940;BME280;26666;50.156;7.700;2023-02-12T14:25:45;102542.19;;;8.32;100.00
40940;BME280;26666;50.156;7.700;2023-02-12T14:41:35;102541.59;;;8.03;100.00
40940;BME280;26666;50.156;7.700;2023-02-12T14:51:42;102540.97;;;8.41;100.00
40940;BME280;26666;50.156;7.700;2023-02-12T14:56:48;102537.97;;;8.50;100.00
40940;BME280;26666;50.156;7.700;2023-02-12T15:01:51;102541.44;;;8.08;100.00
40940;BME280;26666;50.156;7.700;2023-02-12T15:07:02;102539.28;;;8.18;100.00
40940;BME280;26666;50.156;7.700;2023-02-12T15:12:11;102536.94;;;8.32;100.00
40940;BME280;26666;50.156;7.700;2023-02-12T15:17:24;102533.06;;;8.19;100.00
40940;BME280;26666;50.156;7.700;2023-02-12T15:22:34;102535.63;;;8.00;100.00
40940;BME280;26666;50.156;7.700;2023-02-12T15:27:36;102534.75;;;7.99;100.00
40940;BME280;26666;50.156;7.700;2023-02-12T15:32:42;102533.88;;;8.21;100.00
40940;BME280;26666;50.156;7.700;2023-02-12T15:37:45;102531.06;;;8.03;100.00
40940;BME280;26666;50.156;7.700;2023-02-12T15:42:55;102530.56;;;7.94;100.00
40940;BME280;26666;50.156;7.700;2023-02-12T15:48:17;102529.63;;;7.96;100.00
40940;BME280;26666;50.156;7.700;2023-02-12T15:53:21;102525.19;;;7.97;100.00
40940;BME280;26666;50.156;7.700;2023-02-12T15:58:28;102518.34;;;7.93;100.00
40940;BME280;26666;50.156;7.700;2023-02-12T16:03:36;102512.34;;;7.89;100.00
40940;BME280;26666;50.156;7.700;2023-02-12T16:08:43;102525.44;;;7.90;100.00
40940;BME280;26666;50.156;7.700;2023-02-12T16:13:48;102509.47;;;7.95;100.00
40940;BME280;26666;50.156;7.700;2023-02-12T16:24:30;102520.97;;;7.93;100.00
40940;BME280;26666;50.156;7.700;2023-02-12T16:29:32;102512.88;;;7.97;100.00
40940;BME280;26666;50.156;7.700;2023-02-12T16:34:37;102516.41;;;7.98;100.00
40940;BME280;26666;50.156;7.700;2023-02-12T16:50:27;102512.91;;;8.19;100.00
40940;BME280;26666;50.156;7.700;2023-02-12T16:55:29;102519.19;;;8.15;100.00
40940;BME280;26666;50.156;7.700;2023-02-12T17:00:31;102529.78;;;8.14;100.00
40940;BME280;26666;50.156;7.700;2023-02-12T17:05:33;102530.38;;;8.20;100.00
40940;BME280;26666;50.156;7.700;2023-02-12T17:10:34;102541.38;;;8.09;100.00
40940;BME280;26666;50.156;7.700;2023-02-12T17:15:40;102548.22;;;8.14;100.00
40940;BME280;26666;50.156;7.700;2023-02-12T17:20:45;102539.59;;;8.10;100.00
40940;BME280;26666;50.156;7.700;2023-02-12T17:25:48;102550.13;;;8.10;100.00
40940;BME280;26666;50.156;7.700;2023-02-12T17:30:51;102553.13;;;8.01;100.00
40940;BME280;26666;50.156;7.700;2023-02-12T17:35:52;102548.41;;;8.09;100.00
40940;BME280;26666;50.156;7.700;2023-02-12T17:40:54;102558.94;;;8.09;100.00
40940;BME280;26666;50.156;7.700;2023-02-12T17:45:56;102562.59;;;8.05;100.00
40940;BME280;26666;50.156;7.700;2023-02-12T17:50:58;102558.31;;;8.02;100.00
40940;BME280;26666;50.156;7.700;2023-02-12T17:56:00;102566.47;;;7.96;100.00
40940;BME280;26666;50.156;7.700;2023-02-12T18:01:05;102558.69;;;7.93;100.00
40940;BME280;26666;50.156;7.700;2023-02-12T18:06:08;102564.38;;;7.82;100.00
40940;BME280;26666;50.156;7.700;2023-02-12T18:11:10;102572.19;;;7.84;100.00
40940;BME280;26666;50.156;7.700;2023-02-12T18:16:13;102563.63;;;7.79;100.00
40940;BME280;26666;50.156;7.700;2023-02-12T18:21:15;102569.13;;;7.73;100.00
40940;BME280;26666;50.156;7.700;2023-02-12T18:26:17;102564.78;;;7.72;100.00
40940;BME280;26666;50.156;7.700;2023-02-12T18:31:19;102564.81;;;7.70;100.00
40940;BME280;26666;50.156;7.700;2023-02-12T18:36:21;102561.44;;;7.66;100.00
40940;BME280;26666;50.156;7.700;2023-02-12T18:41:25;102564.44;;;7.57;100.00
40940;BME280;26666;50.156;7.700;2023-02-12T18:46:28;102571.69;;;7.50;100.00
40940;BME280;26666;50.156;7.700;2023-02-12T18:51:30;102570.66;;;7.55;100.00
40940;BME280;26666;50.156;7.700;2023-02-12T18:56:35;102556.91;;;7.48;100.00
40940;BME280;26666;50.156;7.700;2023-02-12T19:01:39;102558.78;;;7.44;100.00
40940;BME280;26666;50.156;7.700;2023-02-12T19:06:44;102558.72;;;7.46;100.00
40940;BME280;26666;50.156;7.700;2023-02-12T19:11:48;102558.53;;;7.50;100.00
40940;BME280;26666;50.156;7.700;2023-02-12T19:16:50;102564.84;;;7.46;100.00
40940;BME280;26666;50.156;7.700;2023-02-12T19:21:52;102563.06;;;7.47;100.00
40940;BME280;26666;50.156;7.700;2023-02-12T19:26:54;102570.22;;;7.43;100.00
40940;BME280;26666;50.156;7.700;2023-02-12T19:31:55;102573.72;;;7.44;100.00
40940;BME280;26666;50.156;7.700;2023-02-12T19:36:57;102569.63;;;7.35;100.00
40940;BME280;26666;50.156;7.700;2023-02-12T19:41:59;102574.78;;;7.38;100.00
40940;BME280;26666;50.156;7.700;2023-02-12T19:47:00;102577.47;;;7.37;100.00
40940;BME280;26666;50.156;7.700;2023-02-12T19:52:02;102567.75;;;7.39;100.00
40940;BME280;26666;50.156;7.700;2023-02-12T19:57:03;102572.34;;;7.34;100.00
40940;BME280;26666;50.156;7.700;2023-02-12T20:02:05;102570.63;;;7.33;100.00
40940;BME280;26666;50.156;7.700;2023-02-12T20:07:07;102570.50;;;7.36;100.00
40940;BME280;26666;50.156;7.700;2023-02-12T20:12:09;102568.88;;;7.31;100.00
40940;BME280;26666;50.156;7.700;2023-02-12T20:17:10;102560.94;;;7.33;100.00
40940;BME280;26666;50.156;7.700;2023-02-12T20:22:12;102556.56;;;7.34;100.00
40940;BME280;26666;50.156;7.700;2023-02-12T20:27:13;102568.25;;;7.25;100.00
40940;BME280;26666;50.156;7.700;2023-02-12T20:32:15;102572.72;;;7.23;100.00
40940;BME280;26666;50.156;7.700;2023-02-12T20:37:17;102577.94;;;7.24;100.00
40940;BME280;26666;50.156;7.700;2023-02-12T20:42:18;102580.50;;;7.26;100.00
40940;BME280;26666;50.156;7.700;2023-02-12T20:47:20;102579.72;;;7.24;100.00
40940;BME280;26666;50.156;7.700;2023-02-12T20:52:23;102584.09;;;7.23;100.00
40940;BME280;26666;50.156;7.700;2023-02-12T20:57:24;102577.41;;;7.15;100.00
40940;BME280;26666;50.156;7.700;2023-02-12T21:02:26;102575.72;;;7.12;100.00
40940;BME280;26666;50.156;7.700;2023-02-12T21:07:28;102585.34;;;7.13;100.00
40940;BME280;26666;50.156;7.700;2023-02-12T21:12:29;102591.13;;;7.23;100.00
40940;BME280;26666;50.156;7.700;2023-02-12T21:17:31;102588.41;;;7.26;100.00
40940;BME280;26666;50.156;7.700;2023-02-12T21:22:34;102592.78;;;7.25;100.00
40940;BME280;26666;50.156;7.700;2023-02-12T21:27:36;102594.56;;;7.25;100.00
40940;BME280;26666;50.156;7.700;2023-02-12T21:32:37;102587.47;;;7.27;100.00
40940;BME280;26666;50.156;7.700;2023-02-12T21:37:39;102584.25;;;7.19;100.00
40940;BME280;26666;50.156;7.700;2023-02-12T21:42:40;102590.50;;;7.16;100.00
40940;BME280;26666;50.156;7.700;2023-02-12T21:47:42;102588.72;;;7.17;100.00
40940;BME280;26666;50.156;7.700;2023-02-12T21:52:43;102583.03;;;7.04;100.00
40940;BME280;26666;50.156;7.700;2023-02-12T21:57:45;102593.53;;;7.04;100.00
40940;BME280;26666;50.156;7.700;2023-02-12T22:02:46;102587.69;;;7.21;100.00
40940;BME280;26666;50.156;7.700;2023-02-12T22:07:49;102589.25;;;7.26;100.00
40940;BME280;26666;50.156;7.700;2023-02-12T22:12:51;102580.88;;;7.15;100.00
40940;BME280;26666;50.156;7.700;2023-02-12T22:17:52;102588.84;;;7.12;100.00
40940;BME280;26666;50.156;7.700;2023-02-12T22:22:54;102596.69;;;7.14;100.00
40940;BME280;26666;50.156;7.700;2023-02-12T22:27:55;102595.75;;;7.16;100.00
40940;BME280;26666;50.156;7.700;2023-02-12T22:32:57;102598.31;;;7.18;100.00
40940;BME280;26666;50.156;7.700;2023-02-12T22:37:58;102592.41;;;7.11;100.00
40940;BME280;26666;50.156;7.700;2023-02-12T22:43:00;102588.94;;;7.10;100.00
40940;BME280;26666;50.156;7.700;2023-02-12T22:48:02;102586.56;;;7.03;100.00
40940;BME280;26666;50.156;7.700;2023-02-12T22:53:04;102585.66;;;7.04;100.00
40940;BME280;26666;50.156;7.700;2023-02-12T22:58:05;102592.50;;;7.08;100.00
40940;BME280;26666;50.156;7.700;2023-02-12T23:03:07;102591.78;;;7.04;100.00
40940;BME280;26666;50.156;7.700;2023-02-12T23:08:08;102597.22;;;6.98;100.00
40940;BME280;26666;50.156;7.700;2023-02-12T23:13:10;102604.00;;;7.05;100.00
40940;BME280;26666;50.156;7.700;2023-02-12T23:18:25;102599.69;;;7.04;100.00
40940;BME280;26666;50.156;7.700;2023-02-12T23:23:26;102600.63;;;7.02;100.00
40940;BME280;26666;50.156;7.700;2023-02-12T23:28:29;102603.47;;;6.96;100.00
40940;BME280;26666;50.156;7.700;2023-02-12T23:33:31;102604.38;;;6.95;100.00
40940;BME280;26666;50.156;7.700;2023-02-12T23:38:32;102595.78;;;6.89;100.00
40940;BME280;26666;50.156;7.700;2023-02-12T23:43:34;102595.53;;;6.97;100.00
40940;BME280;26666;50.156;7.700;2023-02-12T23:48:35;102591.34;;;6.91;100.00
40940;BME280;26666;50.156;7.700;2023-02-12T23:53:37;102583.25;;;6.98;100.00
40940;BME280;26666;50.156;7.700;2023-02-12T23:58:39;102586.09;;;6.91;100.00
